Time;durP1;ratioP1;P1;durP2;ratioP2;P2;SDS_P1;SDS_P2;PMS_P1;PMS_P2;Temp;Humidity;BMP_temperature;BMP_pressure;BME280_temperature;BME280_humidity;BME280_pressure;Samples;Min_cycle;Max_cycle;Signal;HPM_P1;HPM_P2
2022/12/02 00:02:31;;;;;;;45.50;21.30;;;0.30;99.90;;;;;;5075815;28;20025;-64
2022/12/02 00:05:02;;;;;;;44.20;20.70;;;0.20;99.90;;;;;;5076117;28;20111;-64
2022/12/02 00:07:28;;;;;;;40.35;19.50;;;0.20;99.90;;;;;;5075820;28;20060;-67
2022/12/02 00:09:54;;;;;;;47.72;22.17;;;0.20;99.90;;;;;;5075685;28;20021;-65
2022/12/02 00:12:21;;;;;;;47.22;21.35;;;0.20;99.90;;;;;;5075663;28;20032;-63
2022/12/02 00:14:56;;;;;;;47.67;21.63;;;0.20;99.90;;;;;;5075953;28;20028;-65
2022/12/02 00:17:23;;;;;;;51.15;20.70;;;0.10;99.90;;;;;;5075900;28;20101;-65
2022/12/02 00:19:49;;;;;;;45.38;21.55;;;0.00;99.90;;;;;;5075563;28;20383;-63
2022/12/02 00:22:14;;;;;;;45.92;22.35;;;0.10;99.90;;;;;;5075407;28;20024;-65
2022/12/02 00:24:40;;;;;;;43.45;21.77;;;0.10;99.90;;;;;;5075457;28;20025;-64
2022/12/02 00:27:05;;;;;;;46.85;22.15;;;0.10;99.90;;;;;;5075494;28;20039;-63
2022/12/02 00:29:31;;;;;;;42.00;20.65;;;0.10;99.90;;;;;;5075360;28;20513;-67
2022/12/02 00:31:57;;;;;;;42.97;21.58;;;0.10;99.90;;;;;;5075385;28;20025;-64
2022/12/02 00:34:22;;;;;;;37.17;20.40;;;0.20;99.90;;;;;;5075535;28;20478;-64
2022/12/02 00:36:48;;;;;;;38.83;21.40;;;0.20;99.90;;;;;;5075175;28;20107;-66
2022/12/02 00:39:15;;;;;;;43.92;23.10;;;0.10;99.90;;;;;;5075138;28;20029;-65
2022/12/02 00:41:40;;;;;;;45.53;22.90;;;0.10;99.90;;;;;;5075348;28;20107;-66
2022/12/02 00:46:50;;;;;;;49.25;23.92;;;0.20;99.90;;;;;;5074914;28;20112;-65
2022/12/02 00:49:16;;;;;;;59.67;24.77;;;0.20;99.90;;;;;;5074928;28;20048;-66
2022/12/02 00:51:43;;;;;;;72.72;27.23;;;0.30;99.90;;;;;;5074930;28;20039;-65
2022/12/02 00:54:10;;;;;;;77.55;27.00;;;0.20;99.90;;;;;;5074848;28;20055;-63
2022/12/02 00:56:36;;;;;;;64.50;26.65;;;0.30;99.90;;;;;;5074854;28;20103;-67
2022/12/02 00:59:02;;;;;;;85.68;26.33;;;0.20;99.90;;;;;;5075106;28;20063;-63
2022/12/02 01:01:28;;;;;;;58.10;23.95;;;0.20;99.90;;;;;;5074645;28;20032;-65
2022/12/02 01:03:54;;;;;;;75.13;25.45;;;0.20;99.90;;;;;;5075012;28;20382;-65
2022/12/02 01:06:20;;;;;;;67.28;24.73;;;0.20;99.90;;;;;;5074570;28;20025;-64
2022/12/02 01:08:45;;;;;;;64.28;24.58;;;0.20;99.90;;;;;;5074587;28;20024;-65
2022/12/02 01:11:11;;;;;;;71.65;24.55;;;0.10;99.90;;;;;;5074923;28;20025;-64
2022/12/02 01:13:37;;;;;;;61.88;23.58;;;0.10;99.90;;;;;;5075013;28;20025;-63
2022/12/02 01:16:03;;;;;;;62.38;24.45;;;0.10;99.90;;;;;;5074454;28;20060;-63
2022/12/02 01:18:29;;;;;;;103.63;24.63;;;0.10;99.90;;;;;;5074669;28;20024;-65
2022/12/02 01:20:54;;;;;;;100.75;25.38;;;0.10;99.90;;;;;;5074617;28;20043;-66
2022/12/02 01:23:20;;;;;;;58.65;22.30;;;0.10;99.90;;;;;;5074545;28;20058;-64
2022/12/02 01:25:47;;;;;;;78.47;22.75;;;0.10;99.90;;;;;;5074588;28;20021;-65
2022/12/02 01:28:13;;;;;;;99.43;22.60;;;0.10;99.90;;;;;;5074145;28;20016;-65
2022/12/02 01:30:39;;;;;;;89.05;21.85;;;0.10;99.90;;;;;;5074147;28;20032;-65
2022/12/02 01:33:04;;;;;;;94.45;23.35;;;0.00;99.90;;;;;;5074220;28;20124;-63
2022/12/02 01:35:30;;;;;;;45.83;19.63;;;0.00;99.90;;;;;;5074162;28;20051;-64
2022/12/02 01:37:56;;;;;;;94.10;22.38;;;0.00;99.90;;;;;;5074074;28;20397;-65
2022/12/02 01:40:21;;;;;;;98.10;21.25;;;0.00;99.90;;;;;;5073907;28;20028;-64
2022/12/02 01:42:48;;;;;;;86.55;19.20;;;-0.10;99.90;;;;;;5074065;28;20052;-66
2022/12/02 01:45:14;;;;;;;61.00;20.50;;;-0.10;99.90;;;;;;5073900;28;20024;-65
2022/12/02 01:47:40;;;;;;;92.28;21.13;;;-0.10;99.90;;;;;;5073761;28;20023;-65
2022/12/02 01:50:09;;;;;;;62.78;21.67;;;-0.10;99.90;;;;;;5074354;28;20017;-65
2022/12/02 01:52:35;;;;;;;88.13;20.33;;;-0.10;99.90;;;;;;5074124;28;20012;-64
2022/12/02 01:55:01;;;;;;;56.33;19.30;;;-0.10;99.90;;;;;;5073581;28;20053;-66
2022/12/02 01:57:29;;;;;;;182.48;24.25;;;-0.10;99.90;;;;;;5073982;28;20031;-66
2022/12/02 01:59:55;;;;;;;82.72;20.88;;;0.00;99.90;;;;;;5073715;28;20047;-64
2022/12/02 02:02:27;;;;;;;109.10;21.65;;;-0.10;99.90;;;;;;5073873;28;20471;-64
2022/12/02 02:05:06;;;;;;;126.95;21.83;;;-0.10;99.90;;;;;;5073584;28;20485;-66
2022/12/02 02:07:33;;;;;;;65.97;19.95;;;-0.10;99.90;;;;;;5074118;28;20070;-65
2022/12/02 02:09:58;;;;;;;143.32;21.63;;;-0.10;99.90;;;;;;5073597;28;20020;-63
2022/12/02 02:12:25;;;;;;;69.75;20.50;;;-0.20;99.90;;;;;;5073521;28;20036;-66
2022/12/02 02:14:51;;;;;;;57.97;20.55;;;-0.20;99.90;;;;;;5073670;28;20035;-65
2022/12/02 02:17:16;;;;;;;57.22;19.00;;;-0.20;99.90;;;;;;5073466;28;20095;-66
2022/12/02 02:19:43;;;;;;;75.32;18.75;;;-0.20;99.90;;;;;;5073368;28;20475;-66
2022/12/02 02:22:14;;;;;;;36.22;17.42;;;-0.20;99.90;;;;;;5073652;28;20036;-65
2022/12/02 02:24:39;;;;;;;;;;;-0.20;99.90;;;;;;5073833;28;20024;-66
2022/12/02 02:27:05;;;;;;;47.83;19.02;;;-0.20;99.90;;;;;;5073701;28;20342;-65
2022/12/02 02:29:32;;;;;;;102.32;22.90;;;-0.20;99.90;;;;;;5073547;28;20024;-66
2022/12/02 02:31:57;;;;;;;75.20;20.65;;;-0.10;99.90;;;;;;5073713;28;20490;-66
2022/12/02 02:34:23;;;;;;;157.45;22.88;;;-0.20;99.90;;;;;;5073224;28;20031;-63
2022/12/02 02:36:48;;;;;;;95.57;21.08;;;-0.20;99.90;;;;;;5073360;28;20025;-65
2022/12/02 02:39:14;;;;;;;109.40;23.45;;;-0.20;99.90;;;;;;5073231;28;20108;-65
2022/12/02 02:41:40;;;;;;;44.40;18.30;;;-0.20;99.90;;;;;;5073071;28;20029;-65
2022/12/02 02:44:06;;;;;;;82.13;21.38;;;-0.20;99.90;;;;;;5073409;28;20107;-66
2022/12/02 02:46:31;;;;;;;87.30;20.65;;;-0.10;99.90;;;;;;5073152;28;20031;-67
2022/12/02 02:48:57;;;;;;;90.95;21.00;;;-0.20;99.90;;;;;;5073110;28;20058;-65
2022/12/02 02:51:23;;;;;;;96.90;21.88;;;-0.20;99.90;;;;;;5073789;28;20024;-64
2022/12/02 02:53:50;;;;;;;105.43;21.25;;;-0.30;99.90;;;;;;5077295;28;20076;-64
2022/12/02 02:56:16;;;;;;;78.00;19.13;;;-0.30;99.90;;;;;;5077590;28;20029;-65
2022/12/02 02:58:42;;;;;;;48.78;17.27;;;-0.40;99.90;;;;;;5077059;28;20398;-65
2022/12/02 03:01:26;;;;;;;51.10;18.75;;;-0.40;99.90;;;;;;5076866;28;20032;-65
2022/12/02 03:04:00;;;;;;;48.30;19.15;;;-0.40;99.90;;;;;;5077253;28;20467;-64
2022/12/02 03:06:28;;;;;;;47.42;17.92;;;-0.50;99.90;;;;;;5077156;28;20378;-65
2022/12/02 03:08:55;;;;;;;57.40;18.23;;;-0.50;99.90;;;;;;5076865;28;20031;-65
2022/12/02 03:11:21;;;;;;;38.25;17.42;;;-0.40;99.90;;;;;;5076758;28;20107;-64
2022/12/02 03:13:48;;;;;;;50.92;17.42;;;-0.40;99.90;;;;;;5076745;28;20028;-66
2022/12/02 03:16:17;;;;;;;46.83;17.92;;;-0.30;99.90;;;;;;5076792;28;20031;-64
2022/12/02 03:18:44;;;;;;;50.92;17.08;;;-0.40;99.90;;;;;;5076767;28;20107;-65
2022/12/02 03:21:10;;;;;;;72.32;20.75;;;-0.40;99.90;;;;;;5076762;28;20466;-65
2022/12/02 03:23:36;;;;;;;60.90;18.23;;;-0.30;99.90;;;;;;5076535;28;20020;-66
2022/12/02 03:26:04;;;;;;;42.15;18.65;;;-0.30;99.90;;;;;;5076479;28;20428;-64
2022/12/02 03:28:31;;;;;;;70.75;20.20;;;-0.30;99.90;;;;;;5076699;28;20063;-66
2022/12/02 03:30:56;;;;;;;65.07;20.08;;;-0.30;99.90;;;;;;5076372;28;20360;-65
2022/12/02 03:33:23;;;;;;;55.50;18.38;;;-0.30;99.90;;;;;;5076729;28;20051;-65
2022/12/02 03:35:48;;;;;;;58.00;19.35;;;-0.30;99.90;;;;;;5076361;28;20036;-66
2022/12/02 03:38:15;;;;;;;98.78;22.00;;;-0.30;99.90;;;;;;5076339;28;20036;-65
2022/12/02 03:40:41;;;;;;;51.17;20.08;;;-0.20;99.90;;;;;;5076316;28;20108;-65
2022/12/02 03:43:06;;;;;;;97.60;22.55;;;-0.20;99.90;;;;;;5076599;28;20523;-65
2022/12/02 03:45:34;;;;;;;39.55;18.75;;;-0.10;99.90;;;;;;5076073;28;20163;-64
2022/12/02 03:48:00;;;;;;;86.43;22.35;;;0.00;99.90;;;;;;5076374;28;20052;-65
2022/12/02 03:50:26;;;;;;;53.22;19.88;;;0.10;99.90;;;;;;5076093;28;20020;-65
2022/12/02 03:52:53;;;;;;;115.60;24.42;;;0.00;99.90;;;;;;5076427;28;20026;-65
2022/12/02 03:55:19;;;;;;;111.78;22.25;;;0.00;99.90;;;;;;5075449;28;20060;-64
2022/12/02 03:57:44;;;;;;;84.68;22.52;;;0.00;99.90;;;;;;5076315;28;20031;-66
2022/12/02 04:00:11;;;;;;;123.50;23.40;;;0.10;99.90;;;;;;5076117;28;20379;-64
2022/12/02 04:02:37;;;;;;;145.07;25.65;;;0.10;99.90;;;;;;5075281;28;20029;-63
2022/12/02 04:05:03;;;;;;;91.93;23.15;;;0.10;99.90;;;;;;5076052;28;20020;-65
2022/12/02 04:07:28;;;;;;;189.75;31.08;;;0.00;99.90;;;;;;5075928;28;20067;-66
2022/12/02 04:09:54;;;;;;;49.45;22.13;;;0.00;99.90;;;;;;5076065;28;20028;-65
2022/12/02 04:12:19;;;;;;;199.30;28.27;;;0.00;99.90;;;;;;5076036;28;20059;-66
2022/12/02 04:14:45;;;;;;;86.53;23.45;;;0.20;99.90;;;;;;5075810;28;20075;-65
2022/12/02 04:17:11;;;;;;;79.03;25.40;;;0.00;99.90;;;;;;5075605;28;20013;-64
2022/12/02 04:19:37;;;;;;;137.52;25.90;;;0.10;99.90;;;;;;5075650;28;20028;-66
2022/12/02 04:22:03;;;;;;;155.65;26.45;;;0.10;99.90;;;;;;5075819;28;20028;-64
2022/12/02 04:24:28;;;;;;;215.15;31.17;;;0.10;99.90;;;;;;5075426;28;20535;-64
2022/12/02 04:26:55;;;;;;;238.68;29.02;;;0.00;99.90;;;;;;5075745;28;20025;-64
2022/12/02 04:29:20;;;;;;;221.52;28.67;;;0.00;99.90;;;;;;5075660;28;20028;-64
2022/12/02 04:31:46;;;;;;;246.85;31.35;;;0.00;99.90;;;;;;5075374;28;20513;-65
2022/12/02 04:34:12;;;;;;;148.45;27.73;;;0.00;99.90;;;;;;5075441;28;20420;-65
2022/12/02 04:36:37;;;;;;;122.85;27.33;;;0.00;99.90;;;;;;5075289;28;20044;-64
2022/12/02 04:39:04;;;;;;;57.88;23.52;;;-0.10;99.90;;;;;;5075501;28;20028;-65
2022/12/02 04:41:30;;;;;;;89.97;25.40;;;0.00;99.90;;;;;;5075407;28;20035;-67
2022/12/02 04:43:55;;;;;;;89.80;25.60;;;-0.10;99.90;;;;;;5075287;28;20449;-64
2022/12/02 04:46:21;;;;;;;121.32;24.88;;;-0.10;99.90;;;;;;5075050;28;20021;-65
2022/12/02 04:48:47;;;;;;;54.78;22.80;;;-0.20;99.90;;;;;;5075178;28;20027;-66
2022/12/02 04:51:13;;;;;;;153.57;26.95;;;-0.20;99.90;;;;;;5075237;28;20043;-62
2022/12/02 04:53:38;;;;;;;111.82;25.35;;;-0.30;99.90;;;;;;5074979;28;20099;-66
2022/12/02 04:56:04;;;;;;;64.15;22.38;;;-0.20;99.90;;;;;;5075243;28;20452;-64
2022/12/02 04:58:30;;;;;;;82.35;23.55;;;-0.20;99.90;;;;;;5075054;28;20390;-65
2022/12/02 05:00:55;;;;;;;156.20;23.98;;;-0.20;99.90;;;;;;5074718;28;20020;-66
2022/12/02 05:03:21;;;;;;;93.72;21.60;;;-0.20;99.90;;;;;;5074691;28;20501;-64
2022/12/02 05:05:46;;;;;;;48.45;19.85;;;-0.30;99.90;;;;;;5056737;28;20025;-65
2022/12/02 05:08:12;;;;;;;87.75;22.17;;;-0.30;99.90;;;;;;5074623;28;20027;-64
2022/12/02 05:10:38;;;;;;;110.07;22.90;;;-0.20;99.90;;;;;;5074501;28;20482;-67
2022/12/02 05:13:03;;;;;;;37.70;20.63;;;-0.30;99.90;;;;;;5074612;28;20041;-64
2022/12/02 05:15:29;;;;;;;53.95;20.33;;;-0.20;99.90;;;;;;5073575;28;20061;-65
2022/12/02 05:17:54;;;;;;;84.95;21.13;;;-0.20;99.90;;;;;;5074386;28;20036;-64
2022/12/02 05:20:20;;;;;;;71.78;20.25;;;-0.20;99.90;;;;;;5074643;28;20021;-65
2022/12/02 05:22:46;;;;;;;58.78;21.15;;;-0.40;99.90;;;;;;5074452;28;20029;-65
2022/12/02 05:25:11;;;;;;;50.55;19.88;;;-0.40;99.90;;;;;;5074696;28;20023;-66
2022/12/02 05:27:37;;;;;;;39.40;19.98;;;-0.50;99.90;;;;;;5074563;28;20024;-65
2022/12/02 05:30:05;;;;;;;58.67;18.75;;;-0.40;99.90;;;;;;5074507;28;20386;-64
2022/12/02 05:32:30;;;;;;;40.38;18.95;;;-0.30;99.90;;;;;;5074127;28;20409;-64
2022/12/02 05:34:56;;;;;;;56.13;18.23;;;-0.50;99.90;;;;;;5074370;28;20028;-66
2022/12/02 05:37:21;;;;;;;78.38;19.80;;;-0.50;99.90;;;;;;5074349;28;20025;-65
2022/12/02 05:39:48;;;;;;;89.55;20.02;;;-0.50;99.90;;;;;;5074554;28;20031;-65
2022/12/02 05:42:14;;;;;;;60.78;19.13;;;-0.50;99.90;;;;;;5074269;28;20036;-65
2022/12/02 05:44:42;;;;;;;67.30;20.27;;;-0.50;99.90;;;;;;5074013;28;20386;-62
2022/12/02 05:47:16;;;;;;;43.45;20.45;;;-0.50;99.90;;;;;;5074135;28;20081;-64
2022/12/02 05:49:44;;;;;;;167.85;22.90;;;-0.50;99.90;;;;;;5074400;28;20016;-64
2022/12/02 05:52:27;;;;;;;46.00;18.95;;;-0.40;99.90;;;;;;5073754;28;20028;-64
2022/12/02 05:54:57;;;;;;;44.63;19.30;;;-0.40;99.90;;;;;;5073646;28;20115;-65
2022/12/02 05:57:27;;;;;;;62.67;20.00;;;-0.40;99.90;;;;;;5073692;28;20055;-65
2022/12/02 06:00:08;;;;;;;;;;;-0.50;99.90;;;;;;5074135;28;20035;-65
2022/12/02 06:02:38;;;;;;;;;;;-0.50;99.90;;;;;;5073959;28;20015;-65
2022/12/02 06:05:37;;;;;;;79.88;18.98;;;-0.50;99.90;;;;;;5074203;28;19904;-67
2022/12/02 06:08:18;;;;;;;71.97;18.45;;;-0.50;99.90;;;;;;5054800;28;20509;-64
2022/12/02 06:10:48;;;;;;;40.25;18.20;;;-0.50;99.90;;;;;;5073567;28;20020;-65
2022/12/02 06:13:26;;;;;;;40.10;19.50;;;-0.50;99.90;;;;;;5073591;28;20021;-64
2022/12/02 06:15:53;;;;;;;72.53;21.70;;;-0.50;99.90;;;;;;5074010;28;20051;-66
2022/12/02 06:18:26;;;;;;;73.32;21.50;;;-0.40;99.90;;;;;;5073454;28;20025;-65
2022/12/02 06:20:58;;;;;;;117.50;21.25;;;-0.30;99.90;;;;;;5073486;28;20027;-66
2022/12/02 06:23:26;;;;;;;74.32;21.60;;;-0.30;99.90;;;;;;5073408;28;20032;-64
2022/12/02 06:25:53;;;;;;;36.83;19.60;;;-0.30;99.90;;;;;;5073292;28;20055;-64
2022/12/02 06:28:25;;;;;;;72.28;19.40;;;-0.30;99.90;;;;;;5073422;28;20111;-65
2022/12/02 06:30:55;;;;;;;79.35;24.77;;;-0.30;99.90;;;;;;5074007;28;20348;-64
2022/12/02 06:33:29;;;;;;;42.15;21.88;;;-0.30;99.90;;;;;;5073431;28;20032;-66
2022/12/02 06:35:55;;;;;;;31.80;17.60;;;-0.30;99.90;;;;;;5073805;28;20103;-64
2022/12/02 06:38:33;;;;;;;50.22;19.02;;;-0.30;99.90;;;;;;5073307;28;20055;-66
2022/12/02 06:41:01;;;;;;;104.18;22.95;;;-0.30;99.90;;;;;;5073397;28;20044;-64
2022/12/02 06:43:30;;;;;;;71.82;22.25;;;-0.20;99.90;;;;;;5073518;28;20025;-63
2022/12/02 06:45:56;;;;;;;69.05;21.52;;;-0.30;99.90;;;;;;5073234;28;20016;-64
2022/12/02 06:48:31;;;;;;;87.28;23.15;;;-0.40;99.90;;;;;;5073089;28;20021;-65
2022/12/02 06:51:09;;;;;;;58.60;20.80;;;-0.40;99.90;;;;;;5073657;28;20062;-66
2022/12/02 06:53:38;;;;;;;42.47;23.58;;;-0.40;99.90;;;;;;5072893;28;20039;-64
2022/12/02 06:56:05;;;;;;;92.88;23.33;;;-0.40;99.90;;;;;;5073348;28;20544;-64
2022/12/02 06:58:49;;;;;;;85.55;21.92;;;-0.40;99.90;;;;;;5073094;28;20029;-64
2022/12/02 07:01:27;;;;;;;47.90;21.70;;;-0.40;99.90;;;;;;5073373;28;20098;-65
2022/12/02 07:04:04;;;;;;;90.80;24.17;;;-0.40;99.90;;;;;;5073399;28;20533;-65
2022/12/02 07:06:31;;;;;;;46.60;20.02;;;-0.30;99.90;;;;;;5073592;28;20025;-65
2022/12/02 07:09:12;;;;;;;84.13;21.13;;;-0.30;99.90;;;;;;5072923;28;20032;-64
2022/12/02 07:11:52;;;;;;;36.03;18.45;;;-0.40;99.90;;;;;;5073209;28;20031;-65
2022/12/02 07:14:26;;;;;;;60.92;17.95;;;-0.40;99.90;;;;;;5073212;28;20086;-64
2022/12/02 07:16:54;;;;;;;51.03;17.58;;;-0.60;99.90;;;;;;5073465;28;20529;-64
2022/12/02 07:19:25;;;;;;;41.30;17.95;;;-0.50;99.90;;;;;;5073119;28;20035;-64
2022/12/02 07:21:51;;;;;;;40.95;19.00;;;-0.50;99.90;;;;;;5073067;28;20021;-65
2022/12/02 07:24:20;;;;;;;124.22;22.30;;;-0.60;99.90;;;;;;5072847;28;20032;-66
2022/12/02 07:26:47;;;;;;;68.00;19.45;;;-0.60;99.90;;;;;;5073119;28;20032;-64
2022/12/02 07:29:19;;;;;;;95.53;21.58;;;-0.60;99.90;;;;;;5073167;28;20024;-64
2022/12/02 07:31:45;;;;;;;33.13;18.65;;;-0.60;99.90;;;;;;5073029;28;20534;-64
2022/12/02 07:34:14;;;;;;;30.08;18.02;;;-0.60;99.90;;;;;;5072748;28;20025;-66
2022/12/02 07:36:40;;;;;;;40.38;16.85;;;-0.60;99.90;;;;;;5072778;28;20437;-65
2022/12/02 07:39:06;;;;;;;94.63;20.85;;;-0.50;99.90;;;;;;5075871;28;20028;-65
2022/12/02 07:41:32;;;;;;;109.63;25.08;;;-0.60;99.90;;;;;;5076244;28;20029;-63
2022/12/02 07:43:58;;;;;;;96.88;23.45;;;-0.70;99.90;;;;;;5076078;28;20028;-67
2022/12/02 07:46:23;;;;;;;93.88;31.73;;;-0.70;99.90;;;;;;5076541;28;20429;-64
2022/12/02 07:48:49;;;;;;;44.10;20.33;;;-0.70;99.90;;;;;;5076153;28;20024;-65
2022/12/02 07:51:14;;;;;;;131.32;47.28;;;-0.70;99.90;;;;;;5076324;28;20063;-66
2022/12/02 07:53:40;;;;;;;78.28;35.05;;;-0.70;99.90;;;;;;5075871;28;20660;-65
2022/12/02 07:56:06;;;;;;;81.03;23.55;;;-0.70;99.90;;;;;;5076342;28;20050;-65
2022/12/02 07:58:31;;;;;;;43.45;22.63;;;-0.70;99.90;;;;;;5076015;28;20050;-65
2022/12/02 08:00:57;;;;;;;47.40;20.45;;;-0.70;99.90;;;;;;5076522;28;20115;-65
2022/12/02 08:03:23;;;;;;;62.38;21.20;;;-0.50;99.90;;;;;;5075913;28;20057;-65
2022/12/02 08:05:48;;;;;;;61.85;20.02;;;-0.60;99.90;;;;;;5076248;28;20024;-64
2022/12/02 08:08:14;;;;;;;56.88;24.08;;;-0.50;99.90;;;;;;5076155;28;20025;-64
2022/12/02 08:10:39;;;;;;;39.83;19.15;;;-0.60;99.90;;;;;;5075694;28;20089;-65
2022/12/02 08:13:05;;;;;;;100.07;46.05;;;-0.60;99.90;;;;;;5075740;28;20118;-66
2022/12/02 08:15:31;;;;;;;72.25;31.42;;;-0.60;99.90;;;;;;5075653;28;20101;-66
2022/12/02 08:17:56;;;;;;;37.75;19.08;;;-0.50;99.90;;;;;;5075709;28;20534;-68
2022/12/02 08:20:22;;;;;;;56.83;24.48;;;-0.50;99.90;;;;;;5075587;28;20091;-66
2022/12/02 08:22:47;;;;;;;40.17;21.58;;;-0.50;99.90;;;;;;5075865;28;20043;-66
2022/12/02 08:25:13;;;;;;;63.50;21.35;;;-0.40;99.90;;;;;;5075548;28;20470;-65
2022/12/02 08:27:39;;;;;;;48.72;26.20;;;-0.40;99.90;;;;;;5075435;28;20066;-65
2022/12/02 08:30:08;;;;;;;38.53;18.13;;;-0.50;99.90;;;;;;5075463;28;20024;-66
2022/12/02 08:32:35;;;;;;;38.55;20.75;;;-0.50;99.90;;;;;;5075649;28;20074;-66
2022/12/02 08:35:01;;;;;;;37.03;19.23;;;-0.60;99.90;;;;;;5075664;28;20035;-66
2022/12/02 08:37:26;;;;;;;42.03;25.45;;;-0.60;99.90;;;;;;5075313;28;20099;-67
2022/12/02 08:39:52;;;;;;;53.08;24.05;;;-0.50;99.90;;;;;;5075833;28;20031;-66
2022/12/02 08:42:17;;;;;;;51.42;23.63;;;-0.50;99.90;;;;;;5075090;28;20033;-67
2022/12/02 08:44:43;;;;;;;37.88;21.48;;;-0.40;99.90;;;;;;5075330;28;20406;-65
2022/12/02 08:47:09;;;;;;;34.40;18.15;;;-0.20;99.90;;;;;;5075357;28;20024;-67
2022/12/02 08:49:34;;;;;;;34.65;19.33;;;0.10;99.90;;;;;;5074133;28;20470;-66
2022/12/02 08:52:00;;;;;;;81.18;38.03;;;0.20;99.90;;;;;;5075366;28;20031;-66
2022/12/02 08:54:26;;;;;;;112.07;43.03;;;0.30;99.90;;;;;;5074828;28;20572;-64
2022/12/02 08:56:51;;;;;;;63.30;25.80;;;0.50;99.90;;;;;;5074930;28;20035;-68
2022/12/02 08:59:17;;;;;;;33.47;19.20;;;0.70;99.90;;;;;;5056964;28;20034;-68
2022/12/02 09:01:43;;;;;;;56.05;26.88;;;0.80;99.90;;;;;;5075196;28;20017;-68
2022/12/02 09:04:09;;;;;;;38.83;21.85;;;1.10;99.90;;;;;;5074709;28;20471;-66
2022/12/02 09:06:34;;;;;;;39.92;20.05;;;1.20;99.90;;;;;;5074839;28;20371;-68
2022/12/02 09:09:00;;;;;;;36.15;18.85;;;1.40;99.90;;;;;;5074608;28;20025;-71
2022/12/02 09:11:26;;;;;;;39.28;23.98;;;1.50;99.90;;;;;;5074964;28;20053;-67
2022/12/02 09:13:51;;;;;;;39.10;25.27;;;1.80;99.90;;;;;;5074532;28;20079;-64
2022/12/02 09:16:17;;;;;;;27.52;17.75;;;2.00;99.90;;;;;;5074390;28;20073;-66
2022/12/02 09:18:42;;;;;;;30.90;16.98;;;2.10;99.90;;;;;;5074376;28;20032;-66
2022/12/02 09:21:08;;;;;;;34.65;18.58;;;2.30;99.90;;;;;;5074625;28;20477;-66
2022/12/02 09:23:34;;;;;;;28.52;15.50;;;2.70;99.90;;;;;;5074444;28;20474;-66
2022/12/02 09:26:00;;;;;;;37.70;21.23;;;3.00;99.90;;;;;;5074386;28;20027;-68
2022/12/02 09:28:25;;;;;;;31.20;18.30;;;3.10;99.90;;;;;;5074271;28;20099;-65
2022/12/02 09:30:51;;;;;;;26.50;14.57;;;3.40;99.90;;;;;;5074594;28;20025;-67
2022/12/02 09:33:17;;;;;;;33.13;13.85;;;3.60;99.90;;;;;;5074097;28;20025;-66
2022/12/02 09:35:42;;;;;;;21.52;13.43;;;3.80;99.90;;;;;;5074190;28;20024;-69
2022/12/02 09:38:08;;;;;;;25.77;15.05;;;4.30;99.90;;;;;;5074042;28;20064;-64
2022/12/02 09:40:34;;;;;;;24.45;14.15;;;4.50;99.90;;;;;;5074038;28;20031;-65
2022/12/02 09:43:01;;;;;;;23.25;13.30;;;4.90;99.90;;;;;;5074037;28;20024;-66
2022/12/02 09:45:27;;;;;;;28.95;14.90;;;5.50;99.90;;;;;;5073870;28;20368;-66
2022/12/02 09:47:54;;;;;;;23.00;14.15;;;5.40;99.90;;;;;;5073905;28;20036;-66
2022/12/02 09:50:20;;;;;;;25.38;14.95;;;5.30;99.90;;;;;;5074329;28;20020;-66
2022/12/02 09:52:47;;;;;;;26.98;15.27;;;5.80;99.90;;;;;;5074591;28;20029;-65
2022/12/02 09:55:19;;;;;;;27.20;15.57;;;5.90;99.90;;;;;;5073458;28;20052;-65
2022/12/02 09:57:45;;;;;;;24.73;15.25;;;6.20;99.90;;;;;;5074212;28;20147;-66
2022/12/02 10:00:20;;;;;;;27.65;17.60;;;6.20;99.90;;;;;;5073851;28;20024;-65
2022/12/02 10:02:53;;;;;;;31.63;19.17;;;6.20;99.90;;;;;;5074254;28;20035;-67
2022/12/02 10:05:22;;;;;;;32.65;20.20;;;5.80;99.90;;;;;;5074176;28;20029;-66
2022/12/02 10:07:50;;;;;;;28.58;17.58;;;5.50;99.90;;;;;;5073634;28;20035;-66
2022/12/02 10:10:19;;;;;;;30.75;18.17;;;5.70;99.90;;;;;;5073909;28;20025;-66
2022/12/02 10:12:45;;;;;;;29.83;18.90;;;6.30;99.90;;;;;;5073862;28;20059;-66
2022/12/02 10:15:13;;;;;;;32.45;20.20;;;6.40;99.90;;;;;;5074010;28;20024;-67
2022/12/02 10:17:41;;;;;;;30.98;18.20;;;6.90;99.90;;;;;;5073527;28;20032;-65
2022/12/02 10:20:10;;;;;;;35.47;20.00;;;7.20;99.90;;;;;;5074166;28;20443;-65
2022/12/02 10:23:09;;;;;;;32.08;19.27;;;6.70;99.90;;;;;;5073435;28;20028;-64
2022/12/02 10:25:36;;;;;;;31.58;19.40;;;6.50;99.90;;;;;;5073740;28;20020;-68
2022/12/02 10:28:02;;;;;;;32.45;18.73;;;5.90;99.90;;;;;;5073692;28;20023;-67
2022/12/02 10:30:28;;;;;;;34.78;19.65;;;5.40;99.90;;;;;;5073371;28;20078;-66
2022/12/02 10:33:00;;;;;;;33.25;19.77;;;5.50;99.90;;;;;;5073383;28;20020;-66
2022/12/02 10:35:27;;;;;;;39.50;18.85;;;5.40;99.90;;;;;;5073327;28;20051;-65
2022/12/02 10:37:53;;;;;;;36.28;19.10;;;5.40;99.90;;;;;;5073271;28;20028;-67
2022/12/02 10:40:21;;;;;;;30.02;18.63;;;5.50;99.90;;;;;;5073502;28;20036;-68
2022/12/02 10:43:16;;;;;;;37.95;20.40;;;5.90;99.90;;;;;;5073555;28;20056;-65
2022/12/02 10:45:55;;;;;;;36.03;19.83;;;6.20;99.90;;;;;;5055163;28;20501;-65
2022/12/02 10:48:22;;;;;;;33.55;19.35;;;6.30;99.90;;;;;;5073157;28;20044;-66
2022/12/02 10:50:47;;;;;;;35.35;20.55;;;6.00;99.90;;;;;;5073160;28;20032;-65
2022/12/02 10:53:16;;;;;;;37.47;19.80;;;5.70;99.90;;;;;;5073172;28;20028;-65
2022/12/02 10:55:42;;;;;;;37.47;21.50;;;5.50;99.90;;;;;;5072704;28;20048;-65
2022/12/02 10:58:21;;;;;;;39.03;23.02;;;5.60;99.90;;;;;;5073447;28;20109;-66
2022/12/02 11:00:47;;;;;;;40.83;24.50;;;5.50;99.90;;;;;;5073440;28;20029;-66
2022/12/02 11:03:13;;;;;;;39.67;23.38;;;5.30;99.90;;;;;;5073241;28;20050;-65
2022/12/02 11:05:39;;;;;;;40.83;21.77;;;5.30;99.90;;;;;;5073064;28;20021;-66
2022/12/02 11:08:16;;;;;;;41.28;22.15;;;5.30;99.90;;;;;;5073224;28;20082;-66
2022/12/02 11:10:43;;;;;;;48.35;24.63;;;5.30;99.90;;;;;;5073324;28;20078;-66
2022/12/02 11:13:12;;;;;;;46.67;24.70;;;5.30;99.90;;;;;;5074757;28;20032;-66
2022/12/02 11:15:48;;;;;;;47.33;23.95;;;5.20;99.90;;;;;;5076925;28;20107;-65
2022/12/02 11:18:25;;;;;;;44.67;22.58;;;5.20;99.90;;;;;;5077540;28;20078;-65
2022/12/02 11:21:14;;;;;;;42.90;21.95;;;5.40;99.90;;;;;;5077232;28;20098;-65
2022/12/02 11:23:40;;;;;;;43.95;24.27;;;6.00;99.90;;;;;;5076671;28;20028;-66
2022/12/02 11:26:07;;;;;;;38.35;21.30;;;6.20;99.90;;;;;;5076873;28;20103;-66
2022/12/02 11:28:46;;;;;;;48.63;24.90;;;5.90;99.90;;;;;;5076434;28;20032;-67
2022/12/02 11:31:15;;;;;;;50.40;24.52;;;5.80;99.90;;;;;;5076516;28;20487;-66
2022/12/02 11:33:49;;;;;;;46.22;24.67;;;5.70;99.90;;;;;;5076690;28;20028;-67
2022/12/02 11:36:23;;;;;;;42.08;21.70;;;5.80;99.90;;;;;;5076775;28;20028;-66
2022/12/02 11:38:51;;;;;;;34.80;19.52;;;5.80;99.90;;;;;;5076663;28;20024;-65
2022/12/02 11:41:25;;;;;;;37.80;20.50;;;5.90;99.90;;;;;;5076786;28;20031;-65
2022/12/02 11:44:08;;;;;;;40.40;22.02;;;5.90;99.90;;;;;;5076560;28;20024;-65
2022/12/02 11:46:48;;;;;;;42.65;21.15;;;6.30;99.90;;;;;;5076702;28;20020;-66
2022/12/02 11:49:22;;;;;;;;;;;6.50;99.90;;;;;;5077060;28;20020;-66
2022/12/02 11:51:48;;;;;;;35.65;18.88;;;6.70;99.90;;;;;;5076055;28;19905;-65
2022/12/02 11:54:16;;;;;;;35.40;19.27;;;6.80;99.90;;;;;;5075896;28;20081;-68
2022/12/02 11:56:44;;;;;;;32.15;16.83;;;7.40;99.90;;;;;;5076088;28;20360;-66
2022/12/02 11:59:20;;;;;;;29.00;16.90;;;7.80;99.90;;;;;;5076035;28;20021;-65
2022/12/02 12:01:47;;;;;;;32.25;17.85;;;7.80;99.90;;;;;;5076256;28;20024;-66
2022/12/02 12:04:28;;;;;;;28.55;16.88;;;7.70;99.90;;;;;;5075983;28;20021;-65
2022/12/02 12:06:59;;;;;;;33.33;18.13;;;7.80;99.90;;;;;;5076463;28;20016;-66
2022/12/02 12:09:26;;;;;;;32.20;18.30;;;7.80;99.90;;;;;;5076186;28;20052;-67
2022/12/02 12:12:13;;;;;;;31.60;17.30;;;7.80;99.90;;;;;;5076137;28;20025;-66
2022/12/02 12:15:03;;;;;;;34.80;18.08;;;7.80;99.90;;;;;;5075879;28;20048;-66
2022/12/02 12:17:37;;;;;;;32.40;16.90;;;7.60;99.90;;;;;;5058309;28;20390;-67
2022/12/02 12:20:03;;;;;;;34.20;18.98;;;7.60;99.90;;;;;;5075955;28;20035;-64
2022/12/02 12:22:30;;;;;;;32.88;17.33;;;7.60;99.90;;;;;;5075390;28;20051;-67
2022/12/02 12:25:33;;;;;;;28.75;15.80;;;7.50;99.90;;;;;;5075315;28;20479;-66
2022/12/02 12:27:59;;;;;;;30.90;16.95;;;7.60;99.90;;;;;;5075813;28;20020;-66
2022/12/02 12:30:25;;;;;;;32.13;18.05;;;7.50;99.90;;;;;;5075810;28;20070;-66
2022/12/02 12:32:51;;;;;;;36.53;19.75;;;7.50;99.90;;;;;;5075408;28;20017;-65
2022/12/02 12:35:16;;;;;;;35.53;17.88;;;7.40;99.90;;;;;;5075761;28;20028;-67
2022/12/02 12:37:42;;;;;;;38.17;19.90;;;7.40;99.90;;;;;;5057409;28;20505;-68
2022/12/02 12:40:08;;;;;;;36.75;20.00;;;7.70;99.90;;;;;;5075527;28;20067;-66
2022/12/02 12:42:34;;;;;;;35.72;18.33;;;7.60;99.90;;;;;;5075144;28;20030;-65